.
WxDataArchive / Data Records for 2012-02-07
2012-02-06 February 2012 2012-02-08

Data Records for Tuesday, 07 February 2012

Time	Temp	Chill	HIndex	Humid	Dewpt	 Wind 	HiWind	WindDir	Rain 	Barom 
-----	----	-----	------	-----	-----	------	------	-------	-----	----- 
00:00	31.0	31.0	31.0	84	26.7	2	4	248	0.00	30.172 
00:05	30.9	30.9	30.9	84	26.6	2	5	248	0.00	30.172 
00:10	30.9	30.9	30.9	84	26.6	2	4	248	0.00	30.172 
00:15	30.9	30.9	30.9	84	26.6	1	2	248	0.00	30.177 
00:20	30.9	30.9	30.9	84	26.6	0	2	248	0.00	30.177 
00:25	30.9	30.9	30.9	84	26.6	0	1	248	0.00	30.177 
00:30	30.9	30.9	30.9	84	26.6	0	1	248	0.00	30.177 
00:35	30.7	30.7	30.7	84	26.4	1	3	248	0.00	30.177 
00:40	30.7	30.7	30.7	84	26.4	2	4	270	0.00	30.177 
00:45	30.7	30.7	30.7	84	26.4	1	2	270	0.00	30.178 
00:50	30.6	30.6	30.6	84	26.4	2	5	270	0.00	30.178 
00:55	30.6	30.6	30.6	84	26.4	2	4	270	0.00	30.178 
01:00	30.4	30.4	30.4	84	26.2	1	3	270	0.00	30.179 
01:05	30.4	30.4	30.4	84	26.2	1	2	270	0.00	30.179 
01:10	30.4	30.4	30.4	84	26.2	1	2	270	0.00	30.179 
01:15	30.4	30.4	30.4	84	26.2	0	2	338	0.00	30.169 
01:20	30.3	30.3	30.3	84	26.1	0	1	338	0.00	30.169 
01:25	30.3	30.3	30.3	85	26.3	0	2	338	0.00	30.169 
01:30	30.3	30.3	30.3	85	26.3	0	2	338	0.00	30.171 
01:35	30.1	30.1	30.1	84	25.9	1	3	338	0.00	30.171 
01:40	30.0	30.0	30.0	84	25.8	1	4	315	0.00	30.171 
01:45	29.8	29.8	29.8	84	25.6	1	2	270	0.00	30.176 
01:50	29.8	29.8	29.8	84	25.6	1	3	270	0.00	30.176 
01:55	29.8	29.8	29.8	84	25.6	1	3	270	0.00	30.176 
02:00	29.8	29.8	29.8	84	25.6	0	2	270	0.00	30.182 
02:05	29.8	29.8	29.8	85	25.9	0	2	270	0.00	30.182 
02:10	29.8	29.8	29.8	85	25.9	1	2	270	0.00	30.182 
02:15	29.8	29.8	29.8	85	25.9	0	3	270	0.00	30.188 
02:20	29.8	29.8	29.8	85	25.9	0	2	270	0.00	30.188 
02:25	29.8	29.8	29.8	85	25.9	0	1	270	0.00	30.188 
02:30	30.0	30.0	30.0	85	26.0	0	1	270	0.00	30.196 
02:35	30.0	30.0	30.0	85	26.0	0	2	270	0.00	30.196 
02:40	30.0	30.0	30.0	85	26.0	0	2	270	0.00	30.196 
02:45	30.0	30.0	30.0	85	26.0	0	2	270	0.00	30.197 
02:50	30.1	30.1	30.1	85	26.1	0	2	270	0.00	30.197 
02:55	30.0	30.0	30.0	85	26.0	1	3	270	0.00	30.197 
03:00	30.0	30.0	30.0	85	26.0	1	3	270	0.00	30.203 
03:05	30.0	30.0	30.0	85	26.0	1	4	270	0.00	30.203 
03:10	30.0	30.0	30.0	85	26.0	1	4	270	0.00	30.203 
03:15	30.0	30.0	30.0	85	26.0	0	2	270	0.00	30.204 
03:20	30.0	30.0	30.0	85	26.0	1	2	270	0.00	30.204 
03:25	30.0	30.0	30.0	85	26.0	1	3	270	0.00	30.204 
03:30	30.0	30.0	30.0	85	26.0	1	3	292	0.00	30.207 
03:35	30.0	30.0	30.0	85	26.0	0	3	292	0.00	30.207 
03:40	29.8	29.8	29.8	85	25.9	0	2	292	0.00	30.207 
03:45	29.8	29.8	29.8	85	25.9	0	2	292	0.00	30.204 
03:50	29.8	29.8	29.8	85	25.9	0	2	292	0.00	30.204 
03:55	29.7	29.7	29.7	85	25.8	0	2	292	0.00	30.204 
04:00	29.7	29.7	29.7	85	25.8	0	2	292	0.00	30.198 
04:05	29.5	29.5	29.5	85	25.6	0	2	292	0.00	30.198 
04:10	29.5	29.5	29.5	85	25.6	0	1	292	0.00	30.198 
04:15	29.4	29.4	29.4	85	25.5	0	5	292	0.00	30.204 
04:20	29.4	29.4	29.4	85	25.5	0	1	292	0.00	30.204 
04:25	29.4	29.4	29.4	85	25.5	0	1	292	0.00	30.204 
04:30	29.5	29.5	29.5	86	25.8	0	2	292	0.00	30.206 
04:35	29.5	29.5	29.5	86	25.8	0	1	292	0.00	30.206 
04:40	29.4	29.4	29.4	86	25.7	0	0	---	0.00	30.206 
04:45	29.4	29.4	29.4	86	25.7	0	2	292	0.00	30.209 
04:50	29.4	29.4	29.4	86	25.7	0	2	292	0.00	30.209 
04:55	29.3	29.3	29.3	85	25.4	0	1	292	0.00	30.209 
05:00	29.3	29.3	29.3	85	25.4	0	0	---	0.00	30.209 
05:05	29.3	29.3	29.3	85	25.4	0	2	292	0.00	30.209 
05:10	29.3	29.3	29.3	85	25.4	0	2	292	0.00	30.209 
05:15	29.4	29.4	29.4	86	25.7	0	1	292	0.00	30.214 
05:20	29.4	29.4	29.4	86	25.7	0	2	292	0.00	30.214 
05:25	29.4	29.4	29.4	86	25.7	0	1	292	0.00	30.214 
05:30	29.4	29.4	29.4	86	25.7	0	0	---	0.00	30.215 
05:35	29.4	29.4	29.4	86	25.7	0	0	---	0.00	30.215 
05:40	29.4	29.4	29.4	86	25.7	0	0	---	0.00	30.215 
05:45	29.4	29.4	29.4	85	25.5	0	1	292	0.00	30.211 
05:50	29.4	29.4	29.4	85	25.5	0	1	292	0.00	30.211 
05:55	29.4	29.4	29.4	85	25.5	0	0	---	0.00	30.211 
06:00	29.4	29.4	29.4	85	25.5	0	0	---	0.00	30.218 
06:05	29.4	29.4	29.4	86	25.7	0	1	292	0.00	30.218 
06:10	29.4	29.4	29.4	86	25.7	0	0	---	0.00	30.218 
06:15	29.4	29.4	29.4	86	25.7	0	0	---	0.00	30.214 
06:20	29.4	29.4	29.4	86	25.7	0	0	---	0.00	30.214 
06:25	29.4	29.4	29.4	86	25.7	0	0	---	0.00	30.214 
06:30	29.5	29.5	29.5	86	25.8	0	0	---	0.00	30.215 
06:35	29.5	29.5	29.5	86	25.8	0	0	---	0.00	30.215 
06:40	29.5	29.5	29.5	86	25.8	0	0	---	0.00	30.215 
06:45	29.5	29.5	29.5	86	25.8	0	0	---	0.00	30.223 
06:50	29.5	29.5	29.5	86	25.8	0	0	---	0.00	30.223 
06:55	29.4	29.4	29.4	86	25.7	0	0	---	0.00	30.223 
07:00	29.5	29.5	29.5	86	25.8	0	0	---	0.00	30.228 
07:05	29.5	29.5	29.5	86	25.8	0	0	---	0.00	30.228 
07:10	29.5	29.5	29.5	86	25.8	0	0	---	0.00	30.228 
07:15	29.5	29.5	29.5	86	25.8	0	0	---	0.00	30.234 
07:20	29.5	29.5	29.5	86	25.8	0	0	---	0.00	30.234 
07:25	29.7	29.7	29.7	86	26.0	0	1	292	0.00	30.234 
07:30	29.7	29.7	29.7	86	26.0	0	1	292	0.00	30.250 
07:35	29.7	29.7	29.7	86	26.0	0	0	---	0.00	30.250 
07:40	29.7	29.7	29.7	86	26.0	0	1	292	0.00	30.250 
07:45	29.8	29.8	29.8	86	26.1	0	1	292	0.00	30.259 
07:50	29.8	29.8	29.8	86	26.1	0	1	292	0.00	30.259 
07:55	29.8	29.8	29.8	86	26.1	0	0	---	0.00	30.259 
08:00	29.8	29.8	29.8	86	26.1	0	0	---	0.00	30.262 
08:05	29.8	29.8	29.8	86	26.1	0	0	---	0.00	30.262 
08:10	29.8	29.8	29.8	86	26.1	0	1	292	0.00	30.262 
08:15	30.0	30.0	30.0	86	26.3	0	1	292	0.00	30.261 
08:20	30.0	30.0	30.0	86	26.3	0	1	292	0.00	30.261 
08:25	30.0	30.0	30.0	86	26.3	0	0	---	0.00	30.261 
08:30	30.0	30.0	30.0	86	26.3	0	0	---	0.00	30.263 
08:35	30.0	30.0	30.0	86	26.3	0	1	292	0.00	30.263 
08:40	30.1	30.1	30.1	86	26.4	0	0	---	0.00	30.263 
08:45	30.1	30.1	30.1	86	26.4	0	0	---	0.00	30.263 
08:50	30.3	30.3	30.3	86	26.6	0	0	---	0.00	30.263 
08:55	30.3	30.3	30.3	86	26.6	0	0	---	0.00	30.263 
09:00	30.4	30.4	30.4	86	26.7	0	0	---	0.00	30.271 
09:05	30.4	30.4	30.4	86	26.7	0	0	---	0.00	30.271 
09:10	30.6	30.6	30.6	86	26.9	0	0	---	0.00	30.271 
09:15	30.6	30.6	30.6	85	26.6	0	0	---	0.00	30.278 
09:20	30.6	30.6	30.6	85	26.6	0	0	---	0.00	30.278 
09:25	30.7	30.7	30.7	85	26.7	0	0	---	0.00	30.278 
09:30	30.7	30.7	30.7	85	26.7	0	0	---	0.00	30.276 
09:35	30.9	30.9	30.9	85	26.9	0	0	---	0.00	30.276 
09:40	31.0	31.0	31.0	85	27.0	0	0	---	0.00	30.276 
09:45	31.2	31.2	31.2	85	27.2	0	0	---	0.00	30.278 
09:50	31.2	31.2	31.2	84	26.9	0	0	---	0.00	30.278 
09:55	31.3	31.3	31.3	84	27.0	0	1	315	0.00	30.278 
10:00	31.5	31.5	31.5	84	27.2	0	0	---	0.00	30.275 
10:05	31.6	31.6	31.6	84	27.3	0	1	315	0.00	30.275 
10:10	31.8	31.8	31.8	84	27.5	0	0	---	0.00	30.275 
10:15	31.9	31.9	31.9	84	27.6	0	0	---	0.00	30.277 
10:20	32.1	32.1	32.1	84	27.8	0	0	---	0.00	30.277 
10:25	32.1	32.1	32.1	84	27.8	0	1	315	0.00	30.277 
10:30	32.2	32.2	32.2	83	27.6	0	1	315	0.00	30.278 
10:35	32.4	32.4	32.4	83	27.8	0	1	315	0.00	30.278 
10:40	32.4	32.4	32.4	83	27.8	0	1	315	0.00	30.278 
10:45	32.5	32.5	32.5	83	27.9	0	1	202	0.00	30.277 
10:50	32.5	32.5	32.5	83	27.9	0	1	202	0.00	30.277 
10:55	32.5	32.5	32.5	84	28.2	0	2	292	0.00	30.277 
11:00	32.7	32.7	32.7	84	28.4	0	1	292	0.00	30.286 
11:05	32.8	32.8	32.8	84	28.5	0	0	---	0.00	30.286 
11:10	32.9	32.9	32.9	84	28.6	0	1	292	0.00	30.286 
11:15	33.1	33.1	33.1	84	28.8	0	2	292	0.00	30.286 
11:20	33.1	33.1	33.1	84	28.8	0	1	292	0.00	30.286 
11:25	33.2	33.2	33.2	84	28.9	0	1	292	0.00	30.286 
11:30	33.4	33.4	33.4	84	29.1	0	1	292	0.00	30.285 
11:35	33.7	33.7	33.7	84	29.4	0	1	292	0.00	30.285 
11:40	33.8	33.8	33.8	84	29.5	0	0	---	0.00	30.285 
11:45	34.1	34.1	34.1	83	29.5	0	2	22	0.00	30.283 
11:50	34.3	34.3	34.3	83	29.7	0	1	22	0.00	30.283 
11:55	34.4	34.4	34.4	83	29.8	0	1	22	0.00	30.283 
12:00	34.4	34.4	34.4	82	29.5	0	1	22	0.00	30.289 
12:05	34.4	34.4	34.4	82	29.5	0	2	315	0.00	30.289 
12:10	34.7	34.7	34.7	82	29.8	0	2	315	0.00	30.289 
12:15	35.0	35.0	35.0	82	30.1	0	2	315	0.00	30.291 
12:20	35.2	35.2	35.2	82	30.3	0	1	315	0.00	30.291 
12:25	35.5	35.5	35.5	81	30.3	0	1	315	0.00	30.291 
12:30	35.6	35.6	35.6	81	30.4	0	2	315	0.00	30.282 
12:35	35.6	35.6	35.6	81	30.4	1	3	135	0.00	30.282 
12:40	35.6	35.6	35.6	81	30.4	0	4	135	0.00	30.282 
12:45	35.5	35.5	35.5	81	30.3	0	3	135	0.00	30.275 
12:50	35.6	35.6	35.6	81	30.4	0	1	135	0.00	30.275 
12:55	35.8	35.8	35.8	81	30.6	0	2	135	0.00	30.275 
13:00	35.9	35.9	35.9	81	30.6	0	2	135	0.00	30.274 
13:05	35.9	35.9	35.9	80	30.3	0	4	112	0.00	30.274 
13:10	36.0	36.0	36.0	80	30.4	0	4	112	0.00	30.274 
13:15	36.0	36.0	36.0	80	30.4	0	1	112	0.00	30.262 
13:20	36.2	36.2	36.2	79	30.3	1	5	112	0.00	30.262 
13:25	36.2	36.2	36.2	79	30.3	2	6	112	0.00	30.262 
13:30	36.0	36.0	36.0	79	30.1	1	5	45	0.00	30.258 
13:35	36.0	36.0	36.0	79	30.1	1	5	45	0.00	30.258 
13:40	36.0	36.0	36.0	79	30.1	1	4	112	0.00	30.258 
13:45	35.9	35.9	35.9	79	30.0	2	5	112	0.00	30.259 
13:50	35.8	35.8	35.8	79	29.9	1	4	112	0.00	30.259 
13:55	35.8	35.8	35.8	80	30.2	1	4	112	0.00	30.259 
14:00	35.6	35.6	35.6	79	29.7	1	4	112	0.00	30.262 
14:05	35.6	35.6	35.6	79	29.7	1	2	112	0.00	30.262 
14:10	35.6	35.6	35.6	79	29.7	1	4	112	0.00	30.262 
14:15	35.6	35.6	35.6	78	29.4	0	2	112	0.00	30.261 
14:20	35.6	35.6	35.6	78	29.4	0	3	112	0.00	30.261 
14:25	35.6	35.6	35.6	78	29.4	0	2	112	0.00	30.261 
14:30	35.8	35.8	35.8	78	29.6	0	2	112	0.00	30.273 
14:35	35.8	35.8	35.8	78	29.6	0	2	112	0.00	30.273 
14:40	35.9	35.9	35.9	78	29.7	0	1	112	0.00	30.273 
14:45	35.9	35.9	35.9	77	29.4	0	2	112	0.00	30.274 
14:50	35.8	35.8	35.8	77	29.3	0	2	112	0.00	30.274 
14:55	35.8	35.8	35.8	77	29.3	0	2	112	0.00	30.274 
15:00	35.8	35.8	35.8	77	29.3	0	2	112	0.00	30.274 
15:05	35.6	35.6	35.6	77	29.1	0	2	112	0.00	30.274 
15:10	35.6	35.6	35.6	77	29.1	1	4	112	0.00	30.274 
15:15	35.6	35.6	35.6	77	29.1	1	4	112	0.00	30.273 
15:20	35.6	35.6	35.6	77	29.1	0	2	112	0.00	30.273 
15:25	35.8	35.8	35.8	77	29.3	0	3	112	0.00	30.273 
15:30	35.9	35.9	35.9	77	29.4	0	2	112	0.00	30.285 
15:35	35.9	35.9	35.9	77	29.4	0	1	112	0.00	30.285 
15:40	35.9	35.9	35.9	77	29.4	0	2	112	0.00	30.285 
15:45	35.9	35.9	35.9	77	29.4	0	1	112	0.00	30.288 
15:50	35.9	35.9	35.9	77	29.4	0	2	112	0.00	30.288 
15:55	35.9	35.9	35.9	77	29.4	0	2	112	0.00	30.288 
16:00	35.8	35.8	35.8	77	29.3	0	2	112	0.00	30.290 
16:05	35.8	35.8	35.8	77	29.3	0	1	112	0.00	30.290 
16:10	35.8	35.8	35.8	77	29.3	0	2	112	0.00	30.290 
16:15	35.8	35.8	35.8	76	29.0	0	2	112	0.00	30.300 
16:20	35.8	35.8	35.8	76	29.0	0	1	112	0.00	30.300 
16:25	35.6	35.6	35.6	76	28.8	0	0	---	0.00	30.300 
16:30	35.6	35.6	35.6	76	28.8	0	1	112	0.00	30.304 
16:35	35.6	35.6	35.6	76	28.8	0	3	90	0.00	30.304 
16:40	35.6	35.6	35.6	76	28.8	0	2	112	0.00	30.304 
16:45	35.6	35.6	35.6	76	28.8	0	3	112	0.00	30.308 
16:50	35.6	35.6	35.6	76	28.8	0	2	112	0.00	30.308 
16:55	35.5	35.5	35.5	77	29.0	0	3	112	0.00	30.308 
17:00	35.5	35.5	35.5	77	29.0	0	1	112	0.00	30.310 
17:05	35.5	35.5	35.5	76	28.7	0	2	112	0.00	30.310 
17:10	35.5	35.5	35.5	76	28.7	0	2	112	0.00	30.310 
17:15	35.3	35.3	35.3	75	28.2	0	1	112	0.00	30.310 
17:20	35.3	35.3	35.3	75	28.2	0	1	112	0.00	30.310 
17:25	35.3	35.3	35.3	75	28.2	0	1	112	0.00	30.310 
17:30	35.2	35.2	35.2	75	28.1	0	0	---	0.00	30.314 
17:35	35.2	35.2	35.2	75	28.1	0	1	112	0.00	30.314 
17:40	35.2	35.2	35.2	75	28.1	0	0	---	0.00	30.314 
17:45	35.2	35.2	35.2	75	28.1	0	0	---	0.00	30.311 
17:50	35.0	35.0	35.0	75	27.9	0	1	112	0.00	30.311 
17:55	35.0	35.0	35.0	76	28.2	0	0	---	0.00	30.311 
18:00	35.0	35.0	35.0	76	28.2	0	1	112	0.00	30.308 
18:05	34.9	34.9	34.9	76	28.1	0	1	112	0.00	30.308 
18:10	34.9	34.9	34.9	75	27.8	0	1	112	0.00	30.308 
18:15	34.9	34.9	34.9	75	27.8	0	1	112	0.00	30.306 
18:20	34.9	34.9	34.9	75	27.8	0	1	112	0.00	30.306 
18:25	34.9	34.9	34.9	75	27.8	0	1	112	0.00	30.306 
18:30	34.9	34.9	34.9	75	27.8	0	1	112	0.00	30.307 
18:35	34.9	34.9	34.9	75	27.8	0	2	112	0.00	30.307 
18:40	34.9	34.9	34.9	76	28.1	0	2	112	0.00	30.307 
18:45	34.9	34.9	34.9	76	28.1	0	2	112	0.00	30.312 
18:50	34.7	34.7	34.7	76	27.9	0	1	112	0.00	30.312 
18:55	34.7	34.7	34.7	76	27.9	0	3	112	0.00	30.312 
19:00	34.7	34.7	34.7	76	27.9	0	2	112	0.00	30.316 
19:05	34.7	34.7	34.7	76	27.9	0	1	112	0.00	30.316 
19:10	34.7	34.7	34.7	77	28.2	0	2	112	0.00	30.316 
19:15	34.6	34.6	34.6	77	28.1	0	1	112	0.00	30.319 
19:20	34.6	34.6	34.6	77	28.1	0	2	112	0.00	30.319 
19:25	34.6	34.6	34.6	77	28.1	0	1	112	0.00	30.319 
19:30	34.6	34.6	34.6	77	28.1	0	2	112	0.00	30.322 
19:35	34.6	34.6	34.6	77	28.1	0	1	112	0.00	30.322 
19:40	34.6	34.6	34.6	77	28.1	1	2	112	0.00	30.322 
19:45	34.6	34.6	34.6	77	28.1	0	2	112	0.00	30.322 
19:50	34.6	34.6	34.6	78	28.5	1	3	112	0.00	30.322 
19:55	34.6	34.6	34.6	79	28.8	2	5	112	0.00	30.322 
20:00	34.3	34.3	34.3	82	29.4	2	5	90	0.00	30.329 
20:05	34.0	34.0	34.0	84	29.7	3	6	112	0.00	30.329 
20:10	33.7	33.7	33.7	85	29.7	3	7	90	0.00	30.329 
20:15	33.2	33.2	33.2	86	29.5	3	5	90	0.00	30.332 
20:20	33.1	33.1	33.1	87	29.7	3	6	90	0.00	30.332 
20:25	32.9	32.9	32.9	87	29.5	3	6	90	0.00	30.332 
20:30	32.8	32.8	32.8	88	29.6	2	5	112	0.00	30.329 
20:35	32.8	32.8	32.8	88	29.6	2	5	112	0.00	30.329 
20:40	32.7	32.7	32.7	88	29.5	2	5	112	0.00	30.329 
20:45	32.7	32.7	32.7	88	29.5	2	7	112	0.00	30.331 
20:50	32.5	32.5	32.5	88	29.3	3	7	112	0.00	30.331 
20:55	32.4	32.4	32.4	89	29.5	2	6	90	0.00	30.331 
21:00	32.4	32.4	32.4	89	29.5	2	5	112	0.00	30.327 
21:05	32.2	32.2	32.2	89	29.3	2	6	90	0.00	30.327 
21:10	32.2	32.2	32.2	90	29.6	2	5	112	0.00	30.327 
21:15	32.1	32.1	32.1	90	29.5	2	5	112	0.00	30.327 
21:20	32.1	32.1	32.1	91	29.8	1	4	112	0.00	30.327 
21:25	31.9	31.9	31.9	91	29.6	2	6	112	0.00	30.327 
21:30	31.9	31.9	31.9	91	29.6	2	6	112	0.00	30.328 
21:35	31.9	31.9	31.9	92	29.8	1	5	90	0.00	30.328 
21:40	31.8	31.8	31.8	92	29.7	3	6	112	0.00	30.328 
21:45	31.8	27.8	31.8	92	29.7	4	7	90	0.00	30.323 
21:50	31.6	31.6	31.6	92	29.5	3	7	90	0.00	30.323 
21:55	31.6	31.6	31.6	92	29.5	3	6	90	0.00	30.323 
22:00	31.5	31.5	31.5	92	29.4	3	6	90	0.00	30.324 
22:05	31.3	31.3	31.3	92	29.3	3	6	90	0.00	30.324 
22:10	31.3	31.3	31.3	92	29.3	3	9	90	0.00	30.324 
22:15	31.3	31.3	31.3	92	29.3	3	6	90	0.00	30.334 
22:20	31.3	31.3	31.3	92	29.3	2	5	90	0.00	30.334 
22:25	31.3	31.3	31.3	92	29.3	2	4	90	0.00	30.334 
22:30	31.3	31.3	31.3	92	29.3	2	5	90	0.00	30.332 
22:35	31.3	31.3	31.3	92	29.3	3	5	112	0.00	30.332 
22:40	31.3	31.3	31.3	92	29.3	2	6	90	0.00	30.332 
22:45	31.5	31.5	31.5	92	29.4	1	6	112	0.00	30.334 
22:50	31.5	31.5	31.5	92	29.4	1	5	90	0.00	30.334 
22:55	31.3	31.3	31.3	92	29.3	1	5	90	0.00	30.334 
23:00	31.3	31.3	31.3	92	29.3	1	4	90	0.00	30.335 
23:05	31.2	31.2	31.2	92	29.2	2	6	90	0.00	30.335 
23:10	31.0	31.0	31.0	92	29.0	1	6	90	0.00	30.335 
23:15	31.0	31.0	31.0	92	29.0	1	5	45	0.00	30.330 
23:20	31.0	31.0	31.0	92	29.0	1	3	45	0.00	30.330 
23:25	31.0	31.0	31.0	92	29.0	1	7	90	0.00	30.330 
23:30	31.0	31.0	31.0	92	29.0	1	4	112	0.00	30.332 
23:35	31.0	31.0	31.0	91	28.7	2	7	90	0.00	30.332 
23:40	31.0	31.0	31.0	91	28.7	1	6	90	0.00	30.332 
23:45	31.0	31.0	31.0	91	28.7	1	5	112	0.00	30.335 
23:50	31.0	31.0	31.0	91	28.7	1	4	112	0.00	30.335 
23:55	31.0	31.0	31.0	91	28.7	0	3	112	0.00	30.335 

CoCoRaHS
IN-AL-39
A2 Web Hosting
Creative Commons License
GoDaddy
search engine by freefind advanced

loaded 2018-11-17 06:39:15 • last modified 2010-11-18 10:43:29
Privacy PolicyDisclaimer
• wx.awcolley.com is powered by PmWiki v.2002016 •
• all content (unless otherwise noted) © 2018 A W Colley